createdAt,value
2019-03-05T00:00:17.053Z,61.91
2019-03-05T00:02:43.864Z,61.97
2019-03-05T00:05:10.684Z,61.71
2019-03-05T00:07:37.403Z,61.54
2019-03-05T00:10:16.385Z,61.54
2019-03-05T00:12:43.130Z,61.76
2019-03-05T00:15:13.198Z,61.80
2019-03-05T00:17:39.976Z,61.87
2019-03-05T00:20:11.071Z,61.91
2019-03-05T00:22:37.821Z,61.89
2019-03-05T00:25:15.327Z,61.78
2019-03-05T00:27:47.240Z,61.88
2019-03-05T00:30:37.049Z,61.91
2019-03-05T00:33:14.934Z,61.31
2019-03-05T00:36:19.276Z,61.60
2019-03-05T00:38:54.150Z,61.80
2019-03-05T00:41:35.246Z,61.91
2019-03-05T00:44:24.936Z,61.86
2019-03-05T00:47:22.423Z,61.90
2019-03-05T00:49:59.970Z,61.88
2019-03-05T00:53:01.389Z,61.91
2019-03-05T00:55:51.217Z,62.14
2019-03-05T00:58:40.862Z,62.02
2019-03-05T01:01:24.876Z,61.91
2019-03-05T01:03:59.798Z,61.80
2019-03-05T01:06:26.558Z,61.78
2019-03-05T01:08:55.676Z,61.49
2019-03-05T01:11:23.349Z,61.56
2019-03-05T01:13:50.186Z,61.51
2019-03-05T01:16:17.391Z,61.67
2019-03-05T01:18:44.114Z,61.49
2019-03-05T01:21:10.847Z,61.42
2019-03-05T01:23:37.649Z,61.42
2019-03-05T01:26:04.689Z,61.49
2019-03-05T01:28:31.391Z,61.18
2019-03-05T01:30:58.190Z,61.24
2019-03-05T01:33:25.227Z,61.32
2019-03-05T01:35:51.987Z,61.29
2019-03-05T01:38:18.762Z,61.31
2019-03-05T01:40:45.596Z,61.37
2019-03-05T01:43:12.329Z,61.56
2019-03-05T01:45:39.134Z,61.29
2019-03-05T01:48:05.870Z,61.36
2019-03-05T01:50:32.712Z,61.32
2019-03-05T01:52:59.522Z,61.30
2019-03-05T01:55:26.268Z,61.52
2019-03-05T01:57:53.026Z,61.25
2019-03-05T02:00:19.792Z,61.34
2019-03-05T02:02:46.528Z,61.27
2019-03-05T02:05:17.012Z,61.31
2019-03-05T02:07:43.783Z,61.21
2019-03-05T02:10:17.197Z,61.01
2019-03-05T02:12:44.003Z,61.09
2019-03-05T02:15:10.834Z,61.28
2019-03-05T02:17:37.576Z,61.28
2019-03-05T02:20:20.916Z,61.37
2019-03-05T02:22:55.962Z,61.09
2019-03-05T02:25:34.065Z,60.89
2019-03-05T02:28:39.931Z,60.81
2019-03-05T02:31:17.906Z,60.80
2019-03-05T02:34:11.113Z,60.84
2019-03-05T02:37:01.090Z,60.30
2019-03-05T02:39:55.547Z,60.07
2019-03-05T02:42:42.741Z,60.85
2019-03-05T02:45:40.950Z,61.09
2019-03-05T02:48:25.235Z,61.16
2019-03-05T02:51:17.272Z,60.99
2019-03-05T02:54:01.657Z,60.92
2019-03-05T02:56:36.383Z,61.18
2019-03-05T02:59:02.523Z,60.62
2019-03-05T03:01:29.406Z,60.77
2019-03-05T03:03:56.161Z,60.60
2019-03-05T03:06:23.014Z,61.05
2019-03-05T03:08:55.368Z,60.90
2019-03-05T03:11:22.107Z,60.71
2019-03-05T03:13:48.830Z,60.87
2019-03-05T03:16:15.619Z,61.00
2019-03-05T03:18:42.364Z,61.11
2019-03-05T03:21:09.089Z,60.99
2019-03-05T03:23:35.871Z,60.84
2019-03-05T03:26:02.729Z,60.60
2019-03-05T03:28:29.432Z,60.90
2019-03-05T03:30:56.217Z,61.25
2019-03-05T03:33:22.958Z,61.33
2019-03-05T03:35:49.758Z,61.25
2019-03-05T03:38:16.494Z,61.12
2019-03-05T03:40:43.213Z,60.90
2019-03-05T03:43:09.983Z,60.75
2019-03-05T03:45:36.708Z,60.58
2019-03-05T03:48:03.553Z,60.52
2019-03-05T03:50:30.332Z,60.58
2019-03-05T03:52:57.083Z,60.46
2019-03-05T03:55:24.111Z,60.28
2019-03-05T03:57:50.932Z,60.39
2019-03-05T04:00:20.066Z,60.29
2019-03-05T04:02:46.970Z,60.05
2019-03-05T04:05:13.811Z,59.82
2019-03-05T04:07:40.643Z,60.01
2019-03-05T04:10:11.403Z,60.12
2019-03-05T04:12:38.128Z,59.93
2019-03-05T04:15:09.693Z,59.87
2019-03-05T04:17:36.468Z,59.90
2019-03-05T04:20:06.281Z,59.65
2019-03-05T04:22:52.891Z,59.82
2019-03-05T04:25:19.642Z,59.75
2019-03-05T04:27:46.795Z,59.41
2019-03-05T04:30:13.880Z,59.57
2019-03-05T04:32:40.582Z,59.92
2019-03-05T04:35:10.700Z,59.98
2019-03-05T04:37:37.466Z,60.25
2019-03-05T04:40:07.911Z,60.29
2019-03-05T04:42:34.786Z,60.33
2019-03-05T04:45:01.521Z,60.34
2019-03-05T04:47:28.252Z,60.50
2019-03-05T04:49:55.060Z,60.65
2019-03-05T04:52:21.799Z,60.73
2019-03-05T04:54:48.521Z,60.20
2019-03-05T04:57:15.285Z,60.04
2019-03-05T04:59:42.001Z,60.53
2019-03-05T05:02:08.796Z,59.92
2019-03-05T05:04:35.547Z,59.43
2019-03-05T05:07:02.281Z,59.23
2019-03-05T05:09:29.167Z,59.13
2019-03-05T05:11:55.946Z,59.88
2019-03-05T05:14:22.684Z,60.15
2019-03-05T05:16:49.596Z,60.35
2019-03-05T05:19:16.331Z,60.10
2019-03-05T05:21:43.079Z,59.90
2019-03-05T05:24:10.005Z,60.49
2019-03-05T05:26:36.688Z,60.79
2019-03-05T05:29:03.427Z,60.67
2019-03-05T05:31:30.205Z,60.84
2019-03-05T05:33:56.953Z,60.78
2019-03-05T05:36:23.841Z,60.79
2019-03-05T05:38:50.573Z,59.97
2019-03-05T05:41:17.329Z,59.61
2019-03-05T05:43:44.133Z,60.34
2019-03-05T05:46:10.880Z,60.42
2019-03-05T05:48:37.621Z,60.65
2019-03-05T05:51:04.397Z,60.79
2019-03-05T05:53:31.127Z,60.65
2019-03-05T05:55:57.929Z,60.70
2019-03-05T05:58:24.665Z,60.36
2019-03-05T06:00:51.403Z,60.21
2019-03-05T06:03:18.185Z,60.09
2019-03-05T06:05:46.511Z,60.21
2019-03-05T06:08:13.284Z,60.21
2019-03-05T06:10:40.080Z,60.26
2019-03-05T06:13:06.862Z,60.37
2019-03-05T06:15:33.657Z,60.31
2019-03-05T06:18:00.405Z,60.46
2019-03-05T06:20:27.145Z,60.61
2019-03-05T06:22:53.907Z,60.99
2019-03-05T06:25:20.630Z,61.11
2019-03-05T06:27:47.462Z,60.41
2019-03-05T06:30:27.508Z,60.96
2019-03-05T06:32:54.409Z,61.43
2019-03-05T06:35:22.440Z,61.13
2019-03-05T06:37:49.256Z,60.99
2019-03-05T06:40:27.589Z,60.73
2019-03-05T06:42:54.503Z,60.70
2019-03-05T06:45:23.243Z,59.92
2019-03-05T06:47:49.973Z,59.49
2019-03-05T06:50:24.714Z,59.69
2019-03-05T06:52:51.436Z,59.91
2019-03-05T06:55:18.180Z,60.15
2019-03-05T06:57:44.959Z,60.46
2019-03-05T07:00:21.755Z,60.40
2019-03-05T07:02:48.633Z,60.34
2019-03-05T07:05:57.340Z,60.21
2019-03-05T07:08:24.118Z,60.17
2019-03-05T07:11:05.383Z,60.97
2019-03-05T07:13:32.975Z,60.68
2019-03-05T07:16:13.411Z,60.54
2019-03-05T07:18:44.224Z,60.69
2019-03-05T07:21:44.868Z,60.52
2019-03-05T07:24:40.613Z,60.48
2019-03-05T07:27:08.165Z,60.21
2019-03-05T07:29:34.883Z,61.00
2019-03-05T07:32:01.688Z,60.63
2019-03-05T07:34:28.413Z,60.36
2019-03-05T07:36:55.294Z,60.97
2019-03-05T07:39:22.801Z,61.17
2019-03-05T07:41:49.525Z,59.96
2019-03-05T07:44:16.292Z,60.06
2019-03-05T07:46:43.033Z,60.15
2019-03-05T07:49:09.922Z,60.14
2019-03-05T07:51:36.639Z,59.81
2019-03-05T07:54:03.606Z,58.73
2019-03-05T07:56:30.403Z,58.14
2019-03-05T07:58:57.211Z,58.26
2019-03-05T08:01:23.878Z,58.91
2019-03-05T08:03:50.647Z,60.25
2019-03-05T08:06:17.382Z,59.62
2019-03-05T08:09:26.112Z,59.58
2019-03-05T08:11:58.293Z,59.55
2019-03-05T08:14:59.349Z,58.89
2019-03-05T08:17:26.191Z,58.76
2019-03-05T08:19:53.199Z,59.02
2019-03-05T08:22:20.060Z,59.03
2019-03-05T08:24:46.805Z,58.58
2019-03-05T08:27:13.544Z,60.55
2019-03-05T08:29:40.340Z,59.31
2019-03-05T08:32:07.179Z,58.57
2019-03-05T08:34:33.903Z,58.29
2019-03-05T08:37:00.694Z,58.06
2019-03-05T08:39:27.439Z,58.31
2019-03-05T08:41:54.242Z,58.01
2019-03-05T08:44:20.971Z,57.59
2019-03-05T08:46:47.715Z,58.05
2019-03-05T08:49:14.593Z,58.34
2019-03-05T08:51:41.346Z,57.86
2019-03-05T08:54:08.665Z,57.42
2019-03-05T08:56:35.417Z,57.51
2019-03-05T08:59:02.201Z,57.44
2019-03-05T09:01:28.992Z,56.42
2019-03-05T09:03:55.740Z,55.77
2019-03-05T09:06:22.480Z,56.34
2019-03-05T09:08:49.291Z,56.28
2019-03-05T09:11:16.330Z,56.38
2019-03-05T09:13:43.060Z,56.56
2019-03-05T09:16:09.957Z,56.58
2019-03-05T09:18:36.700Z,56.59
2019-03-05T09:21:03.640Z,56.10
2019-03-05T09:23:30.422Z,55.65
2019-03-05T09:25:57.197Z,56.18
2019-03-05T09:28:23.984Z,55.33
2019-03-05T09:30:50.776Z,54.41
2019-03-05T09:33:19.265Z,54.39
2019-03-05T09:35:46.097Z,55.18
2019-03-05T09:38:13.145Z,55.89
2019-03-05T09:40:40.160Z,56.21
2019-03-05T09:43:06.950Z,56.52
2019-03-05T09:45:33.680Z,56.01
2019-03-05T09:48:00.504Z,57.13
2019-03-05T09:50:27.366Z,56.85
2019-03-05T09:52:55.210Z,55.48
2019-03-05T09:55:23.757Z,55.67
2019-03-05T09:57:50.476Z,55.61
2019-03-05T10:00:20.597Z,56.58
2019-03-05T10:02:47.410Z,55.32
2019-03-05T10:05:15.671Z,55.35
2019-03-05T10:07:42.874Z,55.43
2019-03-05T10:10:14.292Z,56.39
2019-03-05T10:12:41.057Z,56.15
2019-03-05T10:15:20.554Z,54.78
2019-03-05T10:17:49.909Z,55.08
2019-03-05T10:20:23.053Z,54.28
2019-03-05T10:22:49.988Z,54.99
2019-03-05T10:25:20.637Z,55.57
2019-03-05T10:27:47.944Z,55.96
2019-03-05T10:30:26.960Z,57.09
2019-03-05T10:32:55.179Z,57.12
2019-03-05T10:35:23.613Z,57.47
2019-03-05T10:37:52.853Z,58.43
2019-03-05T10:40:24.538Z,57.74
2019-03-05T10:42:51.279Z,58.43
2019-03-05T10:45:18.881Z,59.05
2019-03-05T10:47:49.517Z,57.94
2019-03-05T10:50:20.852Z,59.35
2019-03-05T10:52:47.598Z,57.84
2019-03-05T10:55:25.747Z,55.53
2019-03-05T10:57:44.431Z,56.03
2019-03-05T11:00:37.764Z,57.60
2019-03-05T11:03:04.775Z,56.27
2019-03-05T11:05:35.829Z,56.01
2019-03-05T11:08:03.469Z,57.91
2019-03-05T11:10:30.330Z,57.95
2019-03-05T11:12:59.086Z,58.69
2019-03-05T11:15:33.332Z,58.09
2019-03-05T11:18:00.616Z,55.02
2019-03-05T11:20:27.438Z,55.53
2019-03-05T11:22:54.648Z,53.88
2019-03-05T11:25:21.977Z,50.50
2019-03-05T11:27:48.812Z,47.32
2019-03-05T11:30:35.320Z,47.34
2019-03-05T11:32:53.623Z,45.58
2019-03-05T11:35:29.648Z,43.72
2019-03-05T11:37:56.578Z,42.32
2019-03-05T11:40:23.720Z,38.17
2019-03-05T11:42:50.579Z,37.86
2019-03-05T11:45:27.909Z,37.55
2019-03-05T11:47:55.558Z,37.22
2019-03-05T11:50:23.198Z,37.33
2019-03-05T11:52:50.123Z,37.32
2019-03-05T11:55:23.595Z,33.31
2019-03-05T11:57:50.820Z,32.56
2019-03-05T12:00:24.983Z,35.95
2019-03-05T12:02:51.738Z,35.00
2019-03-05T12:05:18.483Z,34.89
2019-03-05T12:07:46.142Z,36.94
2019-03-05T12:10:22.745Z,35.79
2019-03-05T12:12:49.875Z,37.29
2019-03-05T12:15:20.312Z,35.93
2019-03-05T12:17:47.640Z,37.68
2019-03-05T12:20:15.028Z,36.85
2019-03-05T12:22:41.752Z,33.33
2019-03-05T12:25:24.848Z,33.53
2019-03-05T12:27:51.828Z,34.25
2019-03-05T12:30:30.578Z,31.97
2019-03-05T12:32:57.319Z,32.51
2019-03-05T12:35:24.061Z,32.95
2019-03-05T12:37:51.288Z,32.04
2019-03-05T12:40:22.225Z,33.97
2019-03-05T12:42:48.958Z,31.93
2019-03-05T12:45:19.154Z,30.88
2019-03-05T12:47:45.898Z,33.32
2019-03-05T12:50:23.005Z,33.50
2019-03-05T12:52:51.537Z,33.05
2019-03-05T12:55:18.681Z,35.07
2019-03-05T12:57:45.564Z,35.92
2019-03-05T13:00:28.586Z,33.81
2019-03-05T13:02:55.799Z,36.53
2019-03-05T13:05:22.722Z,31.26
2019-03-05T13:07:52.489Z,33.91
2019-03-05T13:10:26.260Z,34.03
2019-03-05T13:12:52.993Z,32.90
2019-03-05T13:15:28.971Z,33.09
2019-03-05T13:17:55.721Z,32.85
2019-03-05T13:20:25.761Z,34.30
2019-03-05T13:22:51.115Z,34.13
2019-03-05T13:25:19.136Z,33.27
2019-03-05T13:27:45.992Z,30.83
2019-03-05T13:30:27.047Z,30.53
2019-03-05T13:32:58.498Z,34.30
2019-03-05T13:35:25.357Z,35.44
2019-03-05T13:38:09.448Z,36.55
2019-03-05T13:40:38.365Z,36.44
2019-03-05T13:43:05.480Z,36.80
2019-03-05T13:45:32.333Z,37.22
2019-03-05T13:48:19.207Z,36.06
2019-03-05T13:51:02.155Z,36.91
2019-03-05T13:53:46.222Z,37.87
2019-03-05T13:56:43.745Z,38.51
2019-03-05T13:59:36.011Z,37.72
2019-03-05T14:02:05.567Z,39.26
2019-03-05T14:04:57.710Z,39.63
2019-03-05T14:07:51.836Z,40.26
2019-03-05T14:10:18.710Z,39.83
2019-03-05T14:12:45.457Z,39.04
2019-03-05T14:15:12.426Z,39.37
2019-03-05T14:17:39.209Z,38.68
2019-03-05T14:20:13.888Z,38.68
2019-03-05T14:22:40.749Z,39.20
2019-03-05T14:25:11.883Z,39.21
2019-03-05T14:27:38.633Z,39.46
2019-03-05T14:30:21.332Z,38.67
2019-03-05T14:32:48.585Z,39.13
2019-03-05T14:35:16.789Z,38.49
2019-03-05T14:37:43.627Z,38.99
2019-03-05T14:40:24.113Z,39.05
2019-03-05T14:42:46.582Z,39.68
2019-03-05T14:45:21.019Z,39.96
2019-03-05T14:47:48.273Z,40.27
2019-03-05T14:50:15.110Z,39.47
2019-03-05T14:52:41.850Z,39.27
2019-03-05T14:55:09.738Z,38.81
2019-03-05T14:57:37.643Z,39.30
2019-03-05T15:00:12.498Z,39.51
2019-03-05T15:02:40.215Z,40.24
2019-03-05T15:05:07.884Z,39.84
2019-03-05T15:07:36.045Z,39.80
2019-03-05T15:10:07.081Z,40.23
2019-03-05T15:12:35.667Z,39.56
2019-03-05T15:15:05.035Z,39.58
2019-03-05T15:17:31.760Z,39.20
2019-03-05T15:19:58.617Z,39.27
2019-03-05T15:22:25.755Z,39.30
2019-03-05T15:24:52.718Z,39.68
2019-03-05T15:27:19.682Z,40.51
2019-03-05T15:29:46.703Z,40.15
2019-03-05T15:32:13.474Z,40.94
2019-03-05T15:34:45.422Z,41.71
2019-03-05T15:37:12.264Z,41.86
2019-03-05T15:39:39.208Z,41.30
2019-03-05T15:42:08.572Z,42.90
2019-03-05T15:44:37.196Z,43.57
2019-03-05T15:47:04.146Z,43.64
2019-03-05T15:49:32.975Z,43.08
2019-03-05T15:51:59.925Z,42.52
2019-03-05T15:54:26.758Z,42.73
2019-03-05T15:56:53.684Z,44.01
2019-03-05T15:59:20.641Z,44.90
2019-03-05T16:01:47.490Z,45.32
2019-03-05T16:04:14.445Z,47.37
2019-03-05T16:06:41.268Z,47.45
2019-03-05T16:09:16.155Z,47.72
2019-03-05T16:11:43.212Z,47.37
2019-03-05T16:14:09.973Z,47.52
2019-03-05T16:16:36.881Z,47.51
2019-03-05T16:19:03.926Z,48.29
2019-03-05T16:21:37.140Z,48.89
2019-03-05T16:24:02.846Z,49.18
2019-03-05T16:26:30.011Z,49.54
2019-03-05T16:28:56.816Z,49.91
2019-03-05T16:31:23.913Z,50.03
2019-03-05T16:33:50.869Z,50.19
2019-03-05T16:36:17.642Z,50.53
2019-03-05T16:38:44.444Z,50.47
2019-03-05T16:41:11.235Z,50.25
2019-03-05T16:43:39.886Z,50.08
2019-03-05T16:46:07.052Z,49.73
2019-03-05T16:48:33.987Z,49.68
2019-03-05T16:51:01.160Z,50.08
2019-03-05T16:53:28.305Z,50.13
2019-03-05T16:55:55.030Z,50.30
2019-03-05T16:58:24.259Z,50.40
2019-03-05T17:00:52.564Z,51.08
2019-03-05T17:03:19.292Z,51.37
2019-03-05T17:05:46.607Z,51.11
2019-03-05T17:08:13.378Z,51.52
2019-03-05T17:10:40.255Z,51.73
2019-03-05T17:13:07.152Z,51.73
2019-03-05T17:15:33.891Z,51.94
2019-03-05T17:18:00.645Z,52.40
2019-03-05T17:20:27.411Z,52.66
2019-03-05T17:22:54.185Z,52.76
2019-03-05T17:25:22.122Z,52.63
2019-03-05T17:27:48.886Z,52.38
2019-03-05T17:30:17.039Z,52.57
2019-03-05T17:32:44.042Z,52.40
2019-03-05T17:35:13.216Z,52.32
2019-03-05T17:37:39.945Z,52.09
2019-03-05T17:40:10.556Z,51.50
2019-03-05T17:42:37.298Z,51.54
2019-03-05T17:45:09.536Z,51.80
2019-03-05T17:47:36.277Z,52.08
2019-03-05T17:50:06.834Z,52.49
2019-03-05T17:52:33.704Z,52.36
2019-03-05T17:55:02.467Z,52.49
2019-03-05T17:57:29.264Z,52.57
2019-03-05T17:59:56.108Z,52.31
2019-03-05T18:02:22.995Z,51.66
2019-03-05T18:04:49.834Z,51.64
2019-03-05T18:07:16.596Z,51.75
2019-03-05T18:09:43.505Z,52.10
2019-03-05T18:12:10.465Z,52.21
2019-03-05T18:14:37.392Z,52.00
2019-03-05T18:17:04.420Z,51.92
2019-03-05T18:19:31.518Z,52.36
2019-03-05T18:21:58.353Z,52.62
2019-03-05T18:24:25.131Z,52.79
2019-03-05T18:26:52.097Z,53.19
2019-03-05T18:29:18.879Z,53.09
2019-03-05T18:31:46.204Z,52.91
2019-03-05T18:34:13.085Z,52.62
2019-03-05T18:36:40.236Z,52.65
2019-03-05T18:39:07.343Z,52.78
2019-03-05T18:41:34.566Z,52.83
2019-03-05T18:44:03.227Z,53.27
2019-03-05T18:46:30.345Z,53.63
2019-03-05T18:48:57.326Z,53.76
2019-03-05T18:51:24.337Z,53.89
2019-03-05T18:53:51.365Z,53.34
2019-03-05T18:56:18.659Z,53.02
2019-03-05T18:58:47.902Z,52.41
2019-03-05T19:01:16.389Z,52.54
2019-03-05T19:03:43.490Z,52.82
2019-03-05T19:06:10.511Z,52.98
2019-03-05T19:08:37.710Z,52.77
2019-03-05T19:11:04.832Z,52.93
2019-03-05T19:13:32.230Z,52.99
2019-03-05T19:15:59.862Z,53.05
2019-03-05T19:18:26.992Z,52.88
2019-03-05T19:20:54.226Z,52.64
2019-03-05T19:23:21.372Z,52.46
2019-03-05T19:25:48.565Z,52.60
2019-03-05T19:28:15.778Z,52.63
2019-03-05T19:30:48.091Z,52.77
2019-03-05T19:33:15.285Z,52.81
2019-03-05T19:35:42.580Z,53.18
2019-03-05T19:38:09.789Z,53.26
2019-03-05T19:40:44.856Z,53.00
2019-03-05T19:43:11.996Z,52.95
2019-03-05T19:45:39.134Z,52.95
2019-03-05T19:48:06.510Z,52.83
2019-03-05T19:50:33.698Z,53.05
2019-03-05T19:53:00.948Z,53.14
2019-03-05T19:55:29.017Z,53.18
2019-03-05T19:57:56.402Z,53.12
2019-03-05T20:00:31.569Z,52.94
2019-03-05T20:03:00.411Z,53.07
2019-03-05T20:05:34.454Z,53.09
2019-03-05T20:08:20.598Z,53.14
2019-03-05T20:11:03.859Z,53.16
2019-03-05T20:13:35.119Z,53.31
2019-03-05T20:16:06.409Z,53.35
2019-03-05T20:18:33.549Z,53.34
2019-03-05T20:21:00.709Z,53.49
2019-03-05T20:23:27.910Z,53.75
2019-03-05T20:25:58.279Z,53.84
2019-03-05T20:28:25.450Z,54.00
2019-03-05T20:30:52.673Z,54.07
2019-03-05T20:33:19.816Z,53.74
2019-03-05T20:35:47.240Z,53.31
2019-03-05T20:38:14.535Z,53.20
2019-03-05T20:40:41.680Z,53.17
2019-03-05T20:43:08.918Z,53.14
2019-03-05T20:45:49.333Z,53.33
2019-03-05T20:48:16.560Z,53.41
2019-03-05T20:50:43.716Z,53.59
2019-03-05T20:53:11.017Z,53.86
2019-03-05T20:55:38.190Z,54.03
2019-03-05T20:58:05.277Z,54.36
2019-03-05T21:00:38.975Z,54.77
2019-03-05T21:03:13.067Z,54.29
2019-03-05T21:05:46.416Z,54.49
2019-03-05T21:08:13.726Z,54.93
2019-03-05T21:10:40.898Z,55.24
2019-03-05T21:13:08.349Z,55.21
2019-03-05T21:15:36.498Z,55.04
2019-03-05T21:18:10.531Z,55.18
2019-03-05T21:20:39.127Z,55.69
2019-03-05T21:23:06.234Z,55.65
2019-03-05T21:25:33.167Z,55.77
2019-03-05T21:28:00.110Z,55.56
2019-03-05T21:30:28.041Z,55.57
2019-03-05T21:32:54.793Z,55.64
2019-03-05T21:35:23.153Z,55.88
2019-03-05T21:37:50.409Z,55.97
2019-03-05T21:40:21.771Z,56.13
2019-03-05T21:42:48.698Z,56.17
2019-03-05T21:45:56.074Z,56.06
2019-03-05T21:48:22.975Z,56.08
2019-03-05T21:50:49.728Z,56.64
2019-03-05T21:53:16.488Z,56.71
2019-03-05T21:55:43.307Z,56.87
2019-03-05T21:58:10.232Z,57.21
2019-03-05T22:00:41.143Z,56.93
2019-03-05T22:03:08.021Z,56.72
2019-03-05T22:05:34.810Z,56.90
2019-03-05T22:08:01.561Z,57.07
2019-03-05T22:10:28.324Z,56.67
2019-03-05T22:12:55.055Z,56.71
2019-03-05T22:15:28.079Z,56.67
2019-03-05T22:17:54.884Z,56.51
2019-03-05T22:20:21.598Z,56.54
2019-03-05T22:22:48.480Z,56.42
2019-03-05T22:25:20.227Z,56.62
2019-03-05T22:27:47.138Z,56.67
2019-03-05T22:30:35.296Z,56.64
2019-03-05T22:33:02.428Z,56.44
2019-03-05T22:35:29.158Z,56.21
2019-03-05T22:37:56.017Z,56.21
2019-03-05T22:40:24.360Z,56.04
2019-03-05T22:42:51.100Z,55.91
2019-03-05T22:45:28.321Z,55.75
2019-03-05T22:47:55.058Z,56.10
2019-03-05T22:50:21.899Z,56.57
2019-03-05T22:52:48.661Z,56.62
2019-03-05T22:55:16.585Z,56.63
2019-03-05T22:57:44.378Z,56.90
2019-03-05T23:00:48.610Z,56.64
2019-03-05T23:03:22.864Z,56.89
2019-03-05T23:05:49.955Z,57.18
2019-03-05T23:08:18.048Z,57.35
2019-03-05T23:10:44.972Z,57.39
2019-03-05T23:13:11.858Z,57.22
2019-03-05T23:15:38.758Z,57.14
2019-03-05T23:18:05.617Z,57.09
2019-03-05T23:20:32.500Z,57.14
2019-03-05T23:22:59.373Z,57.11
2019-03-05T23:25:26.391Z,57.04
2019-03-05T23:27:56.820Z,56.88
2019-03-05T23:30:23.766Z,56.78
2019-03-05T23:32:52.156Z,56.78
2019-03-05T23:35:19.452Z,56.80
2019-03-05T23:37:46.689Z,56.68
2019-03-05T23:40:15.635Z,56.55
2019-03-05T23:42:42.382Z,56.57
2019-03-05T23:45:15.641Z,56.31
2019-03-05T23:47:42.539Z,56.32
2019-03-05T23:50:12.434Z,56.62
2019-03-05T23:52:39.713Z,56.61
2019-03-05T23:55:07.303Z,56.35
2019-03-05T23:57:34.330Z,56.49
